sensor_id;sensor_type;location;lat;lon;timestamp;P1;durP1;ratioP1;P2;durP2;ratioP2
6566;SDS011;3317;43.994;22.878;2023-07-02T00:02:14;7.27;;;3.67;;
6566;SDS011;3317;43.994;22.878;2023-07-02T00:04:42;7.63;;;3.77;;
6566;SDS011;3317;43.994;22.878;2023-07-02T00:07:09;6.17;;;3.50;;
6566;SDS011;3317;43.994;22.878;2023-07-02T00:09:36;8.63;;;3.70;;
6566;SDS011;3317;43.994;22.878;2023-07-02T00:12:03;5.97;;;3.50;;
6566;SDS011;3317;43.994;22.878;2023-07-02T00:14:31;5.67;;;3.50;;
6566;SDS011;3317;43.994;22.878;2023-07-02T00:16:59;6.20;;;3.50;;
6566;SDS011;3317;43.994;22.878;2023-07-02T00:19:26;7.70;;;3.43;;
6566;SDS011;3317;43.994;22.878;2023-07-02T00:21:53;7.87;;;3.23;;
6566;SDS011;3317;43.994;22.878;2023-07-02T00:24:20;5.57;;;3.20;;
6566;SDS011;3317;43.994;22.878;2023-07-02T00:26:47;4.90;;;3.20;;
6566;SDS011;3317;43.994;22.878;2023-07-02T00:29:14;9.60;;;3.77;;
6566;SDS011;3317;43.994;22.878;2023-07-02T00:31:41;7.43;;;3.23;;
6566;SDS011;3317;43.994;22.878;2023-07-02T00:34:09;7.17;;;3.90;;
6566;SDS011;3317;43.994;22.878;2023-07-02T00:36:36;7.47;;;3.27;;
6566;SDS011;3317;43.994;22.878;2023-07-02T00:39:03;6.87;;;3.70;;
6566;SDS011;3317;43.994;22.878;2023-07-02T00:41:30;6.90;;;3.37;;
6566;SDS011;3317;43.994;22.878;2023-07-02T00:43:57;6.70;;;3.60;;
6566;SDS011;3317;43.994;22.878;2023-07-02T00:46:24;12.00;;;3.43;;
6566;SDS011;3317;43.994;22.878;2023-07-02T00:48:53;5.80;;;3.20;;
6566;SDS011;3317;43.994;22.878;2023-07-02T00:51:22;19.80;;;3.23;;
6566;SDS011;3317;43.994;22.878;2023-07-02T00:53:52;6.10;;;3.57;;
6566;SDS011;3317;43.994;22.878;2023-07-02T00:56:20;7.50;;;3.17;;
6566;SDS011;3317;43.994;22.878;2023-07-02T00:58:48;8.47;;;3.70;;
6566;SDS011;3317;43.994;22.878;2023-07-02T01:01:17;6.67;;;3.47;;
6566;SDS011;3317;43.994;22.878;2023-07-02T01:03:52;8.50;;;3.27;;
6566;SDS011;3317;43.994;22.878;2023-07-02T01:06:23;6.40;;;3.57;;
6566;SDS011;3317;43.994;22.878;2023-07-02T01:08:52;6.30;;;3.50;;
6566;SDS011;3317;43.994;22.878;2023-07-02T01:11:21;8.17;;;3.47;;
6566;SDS011;3317;43.994;22.878;2023-07-02T01:13:53;12.47;;;3.40;;
6566;SDS011;3317;43.994;22.878;2023-07-02T01:16:26;10.57;;;3.70;;
6566;SDS011;3317;43.994;22.878;2023-07-02T01:18:58;11.50;;;3.80;;
6566;SDS011;3317;43.994;22.878;2023-07-02T01:21:29;15.23;;;3.90;;
6566;SDS011;3317;43.994;22.878;2023-07-02T01:23:57;12.70;;;3.83;;
6566;SDS011;3317;43.994;22.878;2023-07-02T01:26:27;6.43;;;3.37;;
6566;SDS011;3317;43.994;22.878;2023-07-02T01:28:55;7.30;;;3.20;;
6566;SDS011;3317;43.994;22.878;2023-07-02T01:31:22;9.80;;;3.87;;
6566;SDS011;3317;43.994;22.878;2023-07-02T01:33:50;10.80;;;3.17;;
6566;SDS011;3317;43.994;22.878;2023-07-02T01:36:17;4.93;;;3.37;;
6566;SDS011;3317;43.994;22.878;2023-07-02T01:38:46;5.43;;;3.30;;
6566;SDS011;3317;43.994;22.878;2023-07-02T01:41:13;9.10;;;4.53;;
6566;SDS011;3317;43.994;22.878;2023-07-02T01:43:39;8.57;;;3.80;;
6566;SDS011;3317;43.994;22.878;2023-07-02T01:46:06;11.10;;;3.90;;
6566;SDS011;3317;43.994;22.878;2023-07-02T01:48:33;4.90;;;3.37;;
6566;SDS011;3317;43.994;22.878;2023-07-02T01:51:00;5.10;;;3.23;;
6566;SDS011;3317;43.994;22.878;2023-07-02T01:53:28;6.10;;;3.90;;
6566;SDS011;3317;43.994;22.878;2023-07-02T01:55:56;8.33;;;3.93;;
6566;SDS011;3317;43.994;22.878;2023-07-02T01:58:23;6.83;;;3.97;;
6566;SDS011;3317;43.994;22.878;2023-07-02T02:00:50;10.70;;;4.17;;
6566;SDS011;3317;43.994;22.878;2023-07-02T02:03:17;8.10;;;3.57;;
6566;SDS011;3317;43.994;22.878;2023-07-02T02:05:45;6.40;;;3.57;;
6566;SDS011;3317;43.994;22.878;2023-07-02T02:08:12;6.17;;;3.50;;
6566;SDS011;3317;43.994;22.878;2023-07-02T02:10:39;9.67;;;4.00;;
6566;SDS011;3317;43.994;22.878;2023-07-02T02:13:07;7.73;;;4.30;;
6566;SDS011;3317;43.994;22.878;2023-07-02T02:15:34;12.57;;;4.30;;
6566;SDS011;3317;43.994;22.878;2023-07-02T02:18:01;8.87;;;4.13;;
6566;SDS011;3317;43.994;22.878;2023-07-02T02:20:28;9.53;;;4.43;;
6566;SDS011;3317;43.994;22.878;2023-07-02T02:22:55;5.40;;;4.23;;
6566;SDS011;3317;43.994;22.878;2023-07-02T02:25:22;7.50;;;4.40;;
6566;SDS011;3317;43.994;22.878;2023-07-02T02:27:49;12.27;;;4.73;;
6566;SDS011;3317;43.994;22.878;2023-07-02T02:30:18;7.13;;;4.20;;
6566;SDS011;3317;43.994;22.878;2023-07-02T02:32:45;11.67;;;4.30;;
6566;SDS011;3317;43.994;22.878;2023-07-02T02:35:11;6.87;;;4.37;;
6566;SDS011;3317;43.994;22.878;2023-07-02T02:37:39;10.10;;;4.63;;
6566;SDS011;3317;43.994;22.878;2023-07-02T02:40:06;10.00;;;5.10;;
6566;SDS011;3317;43.994;22.878;2023-07-02T02:42:35;11.50;;;5.20;;
6566;SDS011;3317;43.994;22.878;2023-07-02T02:45:02;8.17;;;3.87;;
6566;SDS011;3317;43.994;22.878;2023-07-02T02:47:30;7.80;;;4.47;;
6566;SDS011;3317;43.994;22.878;2023-07-02T02:49:58;11.03;;;4.47;;
6566;SDS011;3317;43.994;22.878;2023-07-02T02:52:26;8.87;;;4.60;;
6566;SDS011;3317;43.994;22.878;2023-07-02T02:54:53;8.53;;;4.60;;
6566;SDS011;3317;43.994;22.878;2023-07-02T02:57:20;9.17;;;4.40;;
6566;SDS011;3317;43.994;22.878;2023-07-02T02:59:46;7.67;;;4.73;;
6566;SDS011;3317;43.994;22.878;2023-07-02T03:02:13;9.83;;;4.87;;
6566;SDS011;3317;43.994;22.878;2023-07-02T03:04:42;6.93;;;4.60;;
6566;SDS011;3317;43.994;22.878;2023-07-02T03:07:10;8.80;;;4.77;;
6566;SDS011;3317;43.994;22.878;2023-07-02T03:09:37;10.87;;;4.23;;
6566;SDS011;3317;43.994;22.878;2023-07-02T03:12:04;6.67;;;4.30;;
6566;SDS011;3317;43.994;22.878;2023-07-02T03:14:31;9.83;;;4.33;;
6566;SDS011;3317;43.994;22.878;2023-07-02T03:16:59;7.77;;;4.10;;
6566;SDS011;3317;43.994;22.878;2023-07-02T03:19:25;9.33;;;4.50;;
6566;SDS011;3317;43.994;22.878;2023-07-02T03:21:54;15.20;;;4.43;;
6566;SDS011;3317;43.994;22.878;2023-07-02T03:24:21;6.63;;;3.93;;
6566;SDS011;3317;43.994;22.878;2023-07-02T03:26:48;15.63;;;4.47;;
6566;SDS011;3317;43.994;22.878;2023-07-02T03:29:15;6.33;;;4.07;;
6566;SDS011;3317;43.994;22.878;2023-07-02T03:31:45;8.73;;;4.57;;
6566;SDS011;3317;43.994;22.878;2023-07-02T03:34:12;6.47;;;4.30;;
6566;SDS011;3317;43.994;22.878;2023-07-02T03:36:39;10.07;;;4.70;;
6566;SDS011;3317;43.994;22.878;2023-07-02T03:39:07;9.33;;;4.40;;
6566;SDS011;3317;43.994;22.878;2023-07-02T03:41:34;7.33;;;4.20;;
6566;SDS011;3317;43.994;22.878;2023-07-02T03:44:01;7.53;;;4.00;;
6566;SDS011;3317;43.994;22.878;2023-07-02T03:46:28;9.60;;;4.23;;
6566;SDS011;3317;43.994;22.878;2023-07-02T03:48:56;6.23;;;3.90;;
6566;SDS011;3317;43.994;22.878;2023-07-02T03:51:23;7.00;;;3.67;;
6566;SDS011;3317;43.994;22.878;2023-07-02T03:53:50;4.40;;;2.87;;
6566;SDS011;3317;43.994;22.878;2023-07-02T03:56:18;2.80;;;2.20;;
6566;SDS011;3317;43.994;22.878;2023-07-02T03:58:45;8.67;;;4.00;;
6566;SDS011;3317;43.994;22.878;2023-07-02T04:01:12;8.80;;;4.10;;
6566;SDS011;3317;43.994;22.878;2023-07-02T04:03:42;9.23;;;3.37;;
6566;SDS011;3317;43.994;22.878;2023-07-02T04:06:14;8.13;;;4.10;;
6566;SDS011;3317;43.994;22.878;2023-07-02T04:08:41;13.80;;;4.47;;
6566;SDS011;3317;43.994;22.878;2023-07-02T04:11:09;10.80;;;4.27;;
6566;SDS011;3317;43.994;22.878;2023-07-02T04:13:37;12.00;;;3.87;;
6566;SDS011;3317;43.994;22.878;2023-07-02T04:16:05;12.80;;;4.33;;
6566;SDS011;3317;43.994;22.878;2023-07-02T04:18:32;13.23;;;4.80;;
6566;SDS011;3317;43.994;22.878;2023-07-02T04:21:00;9.73;;;4.60;;
6566;SDS011;3317;43.994;22.878;2023-07-02T04:23:27;14.27;;;4.40;;
6566;SDS011;3317;43.994;22.878;2023-07-02T04:25:54;12.50;;;4.40;;
6566;SDS011;3317;43.994;22.878;2023-07-02T04:28:21;11.07;;;4.50;;
6566;SDS011;3317;43.994;22.878;2023-07-02T04:30:50;13.13;;;5.20;;
6566;SDS011;3317;43.994;22.878;2023-07-02T04:33:18;7.20;;;4.30;;
6566;SDS011;3317;43.994;22.878;2023-07-02T04:35:45;13.90;;;5.30;;
6566;SDS011;3317;43.994;22.878;2023-07-02T04:38:12;12.63;;;5.37;;
6566;SDS011;3317;43.994;22.878;2023-07-02T04:40:39;10.83;;;5.97;;
6566;SDS011;3317;43.994;22.878;2023-07-02T04:43:09;11.17;;;5.23;;
6566;SDS011;3317;43.994;22.878;2023-07-02T04:45:37;15.23;;;6.13;;
6566;SDS011;3317;43.994;22.878;2023-07-02T04:48:06;6.87;;;4.60;;
6566;SDS011;3317;43.994;22.878;2023-07-02T04:50:33;11.70;;;5.63;;
6566;SDS011;3317;43.994;22.878;2023-07-02T04:53:00;7.40;;;4.27;;
6566;SDS011;3317;43.994;22.878;2023-07-02T04:55:26;7.50;;;4.60;;
6566;SDS011;3317;43.994;22.878;2023-07-02T04:57:54;8.93;;;4.43;;
6566;SDS011;3317;43.994;22.878;2023-07-02T05:00:20;4.07;;;3.40;;
6566;SDS011;3317;43.994;22.878;2023-07-02T05:02:48;11.40;;;5.17;;
6566;SDS011;3317;43.994;22.878;2023-07-02T05:05:16;9.00;;;4.80;;
6566;SDS011;3317;43.994;22.878;2023-07-02T05:07:43;14.10;;;5.37;;
6566;SDS011;3317;43.994;22.878;2023-07-02T05:10:11;10.70;;;4.80;;
6566;SDS011;3317;43.994;22.878;2023-07-02T05:12:38;4.43;;;3.63;;
6566;SDS011;3317;43.994;22.878;2023-07-02T05:15:05;6.40;;;3.53;;
6566;SDS011;3317;43.994;22.878;2023-07-02T05:17:33;8.47;;;4.63;;
6566;SDS011;3317;43.994;22.878;2023-07-02T05:20:01;10.27;;;5.20;;
6566;SDS011;3317;43.994;22.878;2023-07-02T05:22:29;9.43;;;5.20;;
6566;SDS011;3317;43.994;22.878;2023-07-02T05:24:58;11.63;;;5.77;;
6566;SDS011;3317;43.994;22.878;2023-07-02T05:27:25;13.17;;;5.63;;
6566;SDS011;3317;43.994;22.878;2023-07-02T05:29:52;10.43;;;5.17;;
6566;SDS011;3317;43.994;22.878;2023-07-02T05:32:19;8.17;;;4.83;;
6566;SDS011;3317;43.994;22.878;2023-07-02T05:34:46;10.10;;;5.30;;
6566;SDS011;3317;43.994;22.878;2023-07-02T05:37:13;9.43;;;5.20;;
6566;SDS011;3317;43.994;22.878;2023-07-02T05:39:41;18.90;;;5.63;;
6566;SDS011;3317;43.994;22.878;2023-07-02T05:42:08;9.50;;;5.37;;
6566;SDS011;3317;43.994;22.878;2023-07-02T05:44:35;10.07;;;4.80;;
6566;SDS011;3317;43.994;22.878;2023-07-02T05:47:02;7.57;;;4.57;;
6566;SDS011;3317;43.994;22.878;2023-07-02T05:49:29;9.77;;;5.33;;
6566;SDS011;3317;43.994;22.878;2023-07-02T05:51:56;11.37;;;5.07;;
6566;SDS011;3317;43.994;22.878;2023-07-02T05:54:23;10.07;;;4.80;;
6566;SDS011;3317;43.994;22.878;2023-07-02T05:56:53;7.20;;;4.67;;
6566;SDS011;3317;43.994;22.878;2023-07-02T05:59:20;5.50;;;3.40;;
6566;SDS011;3317;43.994;22.878;2023-07-02T06:01:48;4.03;;;2.97;;
6566;SDS011;3317;43.994;22.878;2023-07-02T06:04:15;7.70;;;3.43;;
6566;SDS011;3317;43.994;22.878;2023-07-02T06:06:42;8.50;;;4.80;;
6566;SDS011;3317;43.994;22.878;2023-07-02T06:09:09;12.90;;;4.90;;
6566;SDS011;3317;43.994;22.878;2023-07-02T06:11:35;11.50;;;5.70;;
6566;SDS011;3317;43.994;22.878;2023-07-02T06:14:04;8.63;;;5.20;;
6566;SDS011;3317;43.994;22.878;2023-07-02T06:16:31;11.03;;;4.83;;
6566;SDS011;3317;43.994;22.878;2023-07-02T06:18:59;9.53;;;5.93;;
6566;SDS011;3317;43.994;22.878;2023-07-02T06:21:25;10.30;;;5.30;;
6566;SDS011;3317;43.994;22.878;2023-07-02T06:23:54;14.13;;;5.33;;
6566;SDS011;3317;43.994;22.878;2023-07-02T06:26:23;8.30;;;5.13;;
6566;SDS011;3317;43.994;22.878;2023-07-02T06:28:50;24.53;;;7.67;;
6566;SDS011;3317;43.994;22.878;2023-07-02T06:31:18;12.13;;;5.70;;
6566;SDS011;3317;43.994;22.878;2023-07-02T06:33:45;12.57;;;6.50;;
6566;SDS011;3317;43.994;22.878;2023-07-02T06:36:12;28.63;;;9.03;;
6566;SDS011;3317;43.994;22.878;2023-07-02T06:38:40;15.80;;;6.47;;
6566;SDS011;3317;43.994;22.878;2023-07-02T06:41:07;11.30;;;6.60;;
6566;SDS011;3317;43.994;22.878;2023-07-02T06:43:33;14.33;;;7.13;;
6566;SDS011;3317;43.994;22.878;2023-07-02T06:46:00;9.90;;;6.50;;
6566;SDS011;3317;43.994;22.878;2023-07-02T06:48:29;19.93;;;8.30;;
6566;SDS011;3317;43.994;22.878;2023-07-02T06:50:56;18.17;;;9.07;;
6566;SDS011;3317;43.994;22.878;2023-07-02T06:53:23;15.97;;;7.63;;
6566;SDS011;3317;43.994;22.878;2023-07-02T06:55:50;16.33;;;7.20;;
6566;SDS011;3317;43.994;22.878;2023-07-02T06:58:17;13.83;;;6.00;;
6566;SDS011;3317;43.994;22.878;2023-07-02T07:00:44;8.70;;;5.03;;
6566;SDS011;3317;43.994;22.878;2023-07-02T07:03:11;11.87;;;6.90;;
6566;SDS011;3317;43.994;22.878;2023-07-02T07:05:40;12.80;;;5.97;;
6566;SDS011;3317;43.994;22.878;2023-07-02T07:08:07;9.33;;;5.77;;
6566;SDS011;3317;43.994;22.878;2023-07-02T07:10:34;7.03;;;4.10;;
6566;SDS011;3317;43.994;22.878;2023-07-02T07:13:01;5.50;;;4.07;;
6566;SDS011;3317;43.994;22.878;2023-07-02T07:15:30;5.43;;;3.80;;
6566;SDS011;3317;43.994;22.878;2023-07-02T07:17:59;7.90;;;5.60;;
6566;SDS011;3317;43.994;22.878;2023-07-02T07:20:26;8.10;;;5.03;;
6566;SDS011;3317;43.994;22.878;2023-07-02T07:22:54;8.57;;;4.47;;
6566;SDS011;3317;43.994;22.878;2023-07-02T07:25:21;6.80;;;4.43;;
6566;SDS011;3317;43.994;22.878;2023-07-02T07:27:49;7.87;;;4.63;;
6566;SDS011;3317;43.994;22.878;2023-07-02T07:30:16;9.90;;;4.50;;
6566;SDS011;3317;43.994;22.878;2023-07-02T07:32:47;10.40;;;5.17;;
6566;SDS011;3317;43.994;22.878;2023-07-02T07:35:17;6.60;;;4.63;;
6566;SDS011;3317;43.994;22.878;2023-07-02T07:37:44;10.97;;;6.40;;
6566;SDS011;3317;43.994;22.878;2023-07-02T07:40:13;10.80;;;5.57;;
6566;SDS011;3317;43.994;22.878;2023-07-02T07:42:40;9.13;;;5.70;;
6566;SDS011;3317;43.994;22.878;2023-07-02T07:45:08;8.10;;;5.10;;
6566;SDS011;3317;43.994;22.878;2023-07-02T07:47:36;5.83;;;4.60;;
6566;SDS011;3317;43.994;22.878;2023-07-02T07:50:04;6.13;;;4.83;;
6566;SDS011;3317;43.994;22.878;2023-07-02T07:52:35;5.50;;;4.33;;
6566;SDS011;3317;43.994;22.878;2023-07-02T07:55:03;9.97;;;6.50;;
6566;SDS011;3317;43.994;22.878;2023-07-02T07:57:33;9.97;;;5.50;;
6566;SDS011;3317;43.994;22.878;2023-07-02T08:00:00;9.03;;;6.40;;
6566;SDS011;3317;43.994;22.878;2023-07-02T08:02:29;8.30;;;5.70;;
6566;SDS011;3317;43.994;22.878;2023-07-02T08:04:56;7.30;;;5.33;;
6566;SDS011;3317;43.994;22.878;2023-07-02T08:07:23;6.83;;;5.17;;
6566;SDS011;3317;43.994;22.878;2023-07-02T08:09:50;6.87;;;5.17;;
6566;SDS011;3317;43.994;22.878;2023-07-02T08:12:17;8.40;;;6.17;;
6566;SDS011;3317;43.994;22.878;2023-07-02T08:14:45;9.77;;;6.00;;
6566;SDS011;3317;43.994;22.878;2023-07-02T08:17:12;10.30;;;6.50;;
6566;SDS011;3317;43.994;22.878;2023-07-02T08:19:39;12.20;;;7.07;;
6566;SDS011;3317;43.994;22.878;2023-07-02T08:22:06;11.20;;;6.00;;
6566;SDS011;3317;43.994;22.878;2023-07-02T08:24:33;7.27;;;4.87;;
6566;SDS011;3317;43.994;22.878;2023-07-02T08:27:00;8.13;;;5.67;;
6566;SDS011;3317;43.994;22.878;2023-07-02T08:29:27;11.90;;;6.50;;
6566;SDS011;3317;43.994;22.878;2023-07-02T08:31:56;10.70;;;7.20;;
6566;SDS011;3317;43.994;22.878;2023-07-02T08:34:24;9.00;;;6.03;;
6566;SDS011;3317;43.994;22.878;2023-07-02T08:36:51;9.30;;;6.23;;
6566;SDS011;3317;43.994;22.878;2023-07-02T08:39:18;12.60;;;6.70;;
6566;SDS011;3317;43.994;22.878;2023-07-02T08:41:45;19.80;;;7.40;;
6566;SDS011;3317;43.994;22.878;2023-07-02T08:44:16;8.30;;;5.90;;
6566;SDS011;3317;43.994;22.878;2023-07-02T08:46:46;8.70;;;5.83;;
6566;SDS011;3317;43.994;22.878;2023-07-02T08:49:17;9.73;;;5.83;;
6566;SDS011;3317;43.994;22.878;2023-07-02T08:51:44;8.30;;;6.43;;
6566;SDS011;3317;43.994;22.878;2023-07-02T08:54:11;11.70;;;7.00;;
6566;SDS011;3317;43.994;22.878;2023-07-02T08:56:39;12.97;;;6.30;;
6566;SDS011;3317;43.994;22.878;2023-07-02T08:59:09;9.43;;;5.90;;
6566;SDS011;3317;43.994;22.878;2023-07-02T09:01:44;10.90;;;7.00;;
6566;SDS011;3317;43.994;22.878;2023-07-02T09:04:17;10.97;;;6.50;;
6566;SDS011;3317;43.994;22.878;2023-07-02T09:06:44;7.77;;;6.10;;
6566;SDS011;3317;43.994;22.878;2023-07-02T09:09:12;9.80;;;6.20;;
6566;SDS011;3317;43.994;22.878;2023-07-02T09:11:48;9.03;;;6.07;;
6566;SDS011;3317;43.994;22.878;2023-07-02T09:14:25;10.37;;;6.57;;
6566;SDS011;3317;43.994;22.878;2023-07-02T09:17:04;10.47;;;7.20;;
6566;SDS011;3317;43.994;22.878;2023-07-02T09:19:33;16.40;;;7.23;;
6566;SDS011;3317;43.994;22.878;2023-07-02T09:22:01;13.83;;;7.33;;
6566;SDS011;3317;43.994;22.878;2023-07-02T09:24:29;8.10;;;6.70;;
6566;SDS011;3317;43.994;22.878;2023-07-02T09:26:58;14.67;;;7.13;;
6566;SDS011;3317;43.994;22.878;2023-07-02T09:29:26;11.07;;;6.70;;
6566;SDS011;3317;43.994;22.878;2023-07-02T09:31:54;10.30;;;6.77;;
6566;SDS011;3317;43.994;22.878;2023-07-02T09:34:26;9.73;;;6.83;;
6566;SDS011;3317;43.994;22.878;2023-07-02T09:36:57;9.03;;;6.03;;
6566;SDS011;3317;43.994;22.878;2023-07-02T09:39:27;9.80;;;6.20;;
6566;SDS011;3317;43.994;22.878;2023-07-02T09:41:58;11.23;;;7.33;;
6566;SDS011;3317;43.994;22.878;2023-07-02T09:44:26;12.50;;;6.80;;
6566;SDS011;3317;43.994;22.878;2023-07-02T09:46:58;10.83;;;6.20;;
6566;SDS011;3317;43.994;22.878;2023-07-02T09:49:29;13.93;;;7.10;;
6566;SDS011;3317;43.994;22.878;2023-07-02T09:52:00;9.53;;;6.07;;
6566;SDS011;3317;43.994;22.878;2023-07-02T09:54:28;11.07;;;6.30;;
6566;SDS011;3317;43.994;22.878;2023-07-02T09:56:58;8.57;;;5.97;;
6566;SDS011;3317;43.994;22.878;2023-07-02T09:59:27;11.40;;;7.23;;
6566;SDS011;3317;43.994;22.878;2023-07-02T10:01:54;9.23;;;6.83;;
6566;SDS011;3317;43.994;22.878;2023-07-02T10:04:21;16.00;;;7.20;;
6566;SDS011;3317;43.994;22.878;2023-07-02T10:06:50;8.07;;;6.10;;
6566;SDS011;3317;43.994;22.878;2023-07-02T10:09:19;17.03;;;7.53;;
6566;SDS011;3317;43.994;22.878;2023-07-02T10:11:47;12.60;;;7.00;;
6566;SDS011;3317;43.994;22.878;2023-07-02T10:14:14;9.97;;;7.27;;
6566;SDS011;3317;43.994;22.878;2023-07-02T10:16:49;13.87;;;8.10;;
6566;SDS011;3317;43.994;22.878;2023-07-02T10:19:17;8.17;;;5.93;;
6566;SDS011;3317;43.994;22.878;2023-07-02T10:21:44;9.73;;;5.93;;
6566;SDS011;3317;43.994;22.878;2023-07-02T10:24:14;9.40;;;6.50;;
6566;SDS011;3317;43.994;22.878;2023-07-02T10:26:53;11.17;;;6.60;;
6566;SDS011;3317;43.994;22.878;2023-07-02T10:29:22;8.00;;;5.67;;
6566;SDS011;3317;43.994;22.878;2023-07-02T10:31:49;13.03;;;6.60;;
6566;SDS011;3317;43.994;22.878;2023-07-02T10:34:27;8.33;;;6.27;;
6566;SDS011;3317;43.994;22.878;2023-07-02T10:36:58;10.63;;;6.77;;
6566;SDS011;3317;43.994;22.878;2023-07-02T10:39:25;9.37;;;6.10;;
6566;SDS011;3317;43.994;22.878;2023-07-02T10:42:04;7.17;;;5.97;;
6566;SDS011;3317;43.994;22.878;2023-07-02T10:44:31;12.10;;;6.40;;
6566;SDS011;3317;43.994;22.878;2023-07-02T10:46:59;9.07;;;6.40;;
6566;SDS011;3317;43.994;22.878;2023-07-02T10:49:30;8.13;;;5.73;;
6566;SDS011;3317;43.994;22.878;2023-07-02T10:51:57;8.40;;;5.93;;
6566;SDS011;3317;43.994;22.878;2023-07-02T10:54:25;8.53;;;6.10;;
6566;SDS011;3317;43.994;22.878;2023-07-02T10:56:56;7.20;;;6.00;;
6566;SDS011;3317;43.994;22.878;2023-07-02T10:59:25;8.40;;;5.90;;
6566;SDS011;3317;43.994;22.878;2023-07-02T11:01:52;10.73;;;6.83;;
6566;SDS011;3317;43.994;22.878;2023-07-02T11:04:20;9.63;;;6.03;;
6566;SDS011;3317;43.994;22.878;2023-07-02T11:06:48;11.20;;;6.23;;
6566;SDS011;3317;43.994;22.878;2023-07-02T11:09:16;9.10;;;6.07;;
6566;SDS011;3317;43.994;22.878;2023-07-02T11:11:49;8.33;;;6.40;;
6566;SDS011;3317;43.994;22.878;2023-07-02T11:14:27;11.30;;;6.87;;
6566;SDS011;3317;43.994;22.878;2023-07-02T11:16:55;9.67;;;6.50;;
6566;SDS011;3317;43.994;22.878;2023-07-02T11:19:22;8.90;;;6.43;;
6566;SDS011;3317;43.994;22.878;2023-07-02T11:21:50;15.17;;;6.63;;
6566;SDS011;3317;43.994;22.878;2023-07-02T11:24:26;8.63;;;6.77;;
6566;SDS011;3317;43.994;22.878;2023-07-02T11:26:54;7.43;;;6.20;;
6566;SDS011;3317;43.994;22.878;2023-07-02T11:29:23;8.33;;;6.30;;
6566;SDS011;3317;43.994;22.878;2023-07-02T11:31:51;12.20;;;6.47;;
6566;SDS011;3317;43.994;22.878;2023-07-02T11:34:19;7.80;;;6.77;;
6566;SDS011;3317;43.994;22.878;2023-07-02T11:36:47;8.83;;;6.63;;
6566;SDS011;3317;43.994;22.878;2023-07-02T11:39:15;9.43;;;6.87;;
6566;SDS011;3317;43.994;22.878;2023-07-02T11:41:43;10.50;;;6.40;;
6566;SDS011;3317;43.994;22.878;2023-07-02T11:44:11;9.87;;;7.17;;
6566;SDS011;3317;43.994;22.878;2023-07-02T11:46:38;10.27;;;6.00;;
6566;SDS011;3317;43.994;22.878;2023-07-02T11:49:06;11.03;;;6.00;;
6566;SDS011;3317;43.994;22.878;2023-07-02T11:51:34;9.50;;;6.60;;
6566;SDS011;3317;43.994;22.878;2023-07-02T11:54:02;8.77;;;6.70;;
6566;SDS011;3317;43.994;22.878;2023-07-02T11:56:29;11.53;;;7.97;;
6566;SDS011;3317;43.994;22.878;2023-07-02T11:58:56;8.87;;;6.50;;
6566;SDS011;3317;43.994;22.878;2023-07-02T12:01:23;7.83;;;6.20;;
6566;SDS011;3317;43.994;22.878;2023-07-02T12:03:50;11.33;;;6.10;;
6566;SDS011;3317;43.994;22.878;2023-07-02T12:06:19;9.17;;;6.17;;
6566;SDS011;3317;43.994;22.878;2023-07-02T12:08:46;13.20;;;7.37;;
6566;SDS011;3317;43.994;22.878;2023-07-02T12:11:15;17.53;;;7.80;;
6566;SDS011;3317;43.994;22.878;2023-07-02T12:13:42;10.77;;;5.40;;
6566;SDS011;3317;43.994;22.878;2023-07-02T12:16:09;17.97;;;5.43;;
6566;SDS011;3317;43.994;22.878;2023-07-02T12:18:36;8.33;;;5.23;;
6566;SDS011;3317;43.994;22.878;2023-07-02T12:21:03;11.60;;;4.23;;
6566;SDS011;3317;43.994;22.878;2023-07-02T12:23:31;8.33;;;4.00;;
6566;SDS011;3317;43.994;22.878;2023-07-02T12:25:58;9.10;;;4.47;;
6566;SDS011;3317;43.994;22.878;2023-07-02T12:28:25;6.20;;;4.70;;
6566;SDS011;3317;43.994;22.878;2023-07-02T12:30:52;6.17;;;5.57;;
6566;SDS011;3317;43.994;22.878;2023-07-02T12:33:20;7.07;;;4.90;;
6566;SDS011;3317;43.994;22.878;2023-07-02T12:35:46;8.97;;;5.47;;
6566;SDS011;3317;43.994;22.878;2023-07-02T12:38:13;9.50;;;5.37;;
6566;SDS011;3317;43.994;22.878;2023-07-02T12:40:42;7.57;;;6.00;;
6566;SDS011;3317;43.994;22.878;2023-07-02T12:43:09;8.60;;;6.00;;
6566;SDS011;3317;43.994;22.878;2023-07-02T12:45:35;12.07;;;6.67;;
6566;SDS011;3317;43.994;22.878;2023-07-02T12:48:03;8.30;;;6.03;;
6566;SDS011;3317;43.994;22.878;2023-07-02T12:50:30;9.30;;;7.10;;
6566;SDS011;3317;43.994;22.878;2023-07-02T12:52:57;7.63;;;6.10;;
6566;SDS011;3317;43.994;22.878;2023-07-02T12:55:26;10.07;;;6.70;;
6566;SDS011;3317;43.994;22.878;2023-07-02T12:57:54;8.63;;;6.57;;
6566;SDS011;3317;43.994;22.878;2023-07-02T13:00:23;9.73;;;7.40;;
6566;SDS011;3317;43.994;22.878;2023-07-02T13:02:51;9.63;;;6.90;;
6566;SDS011;3317;43.994;22.878;2023-07-02T13:05:18;9.47;;;6.53;;
6566;SDS011;3317;43.994;22.878;2023-07-02T13:07:45;12.20;;;8.00;;
6566;SDS011;3317;43.994;22.878;2023-07-02T13:10:13;12.40;;;7.47;;
6566;SDS011;3317;43.994;22.878;2023-07-02T13:12:40;9.37;;;7.20;;
6566;SDS011;3317;43.994;22.878;2023-07-02T13:15:10;9.40;;;6.80;;
6566;SDS011;3317;43.994;22.878;2023-07-02T13:17:37;10.03;;;8.50;;
6566;SDS011;3317;43.994;22.878;2023-07-02T13:20:06;8.23;;;7.30;;
6566;SDS011;3317;43.994;22.878;2023-07-02T13:22:35;10.37;;;8.57;;
6566;SDS011;3317;43.994;22.878;2023-07-02T13:25:02;13.93;;;9.70;;
6566;SDS011;3317;43.994;22.878;2023-07-02T13:27:30;11.23;;;9.37;;
6566;SDS011;3317;43.994;22.878;2023-07-02T13:29:58;9.50;;;8.20;;
6566;SDS011;3317;43.994;22.878;2023-07-02T13:32:26;11.50;;;8.80;;
6566;SDS011;3317;43.994;22.878;2023-07-02T13:34:54;13.50;;;10.70;;
6566;SDS011;3317;43.994;22.878;2023-07-02T13:37:21;14.33;;;10.43;;
6566;SDS011;3317;43.994;22.878;2023-07-02T13:39:48;13.03;;;10.70;;
6566;SDS011;3317;43.994;22.878;2023-07-02T13:42:15;12.87;;;11.10;;
6566;SDS011;3317;43.994;22.878;2023-07-02T13:44:43;14.77;;;11.80;;
6566;SDS011;3317;43.994;22.878;2023-07-02T13:47:10;11.70;;;9.90;;
6566;SDS011;3317;43.994;22.878;2023-07-02T13:49:39;16.80;;;10.00;;
6566;SDS011;3317;43.994;22.878;2023-07-02T13:52:06;10.40;;;9.30;;
6566;SDS011;3317;43.994;22.878;2023-07-02T13:54:34;17.57;;;10.80;;
6566;SDS011;3317;43.994;22.878;2023-07-02T13:57:02;15.43;;;10.77;;
6566;SDS011;3317;43.994;22.878;2023-07-02T13:59:31;13.60;;;10.60;;
6566;SDS011;3317;43.994;22.878;2023-07-02T14:01:58;11.90;;;10.43;;
6566;SDS011;3317;43.994;22.878;2023-07-02T14:04:25;9.40;;;8.13;;
6566;SDS011;3317;43.994;22.878;2023-07-02T14:06:53;10.77;;;8.53;;
6566;SDS011;3317;43.994;22.878;2023-07-02T14:09:20;15.77;;;8.03;;
6566;SDS011;3317;43.994;22.878;2023-07-02T14:11:47;10.00;;;7.47;;
6566;SDS011;3317;43.994;22.878;2023-07-02T14:14:14;11.03;;;7.93;;
6566;SDS011;3317;43.994;22.878;2023-07-02T14:16:42;8.03;;;5.57;;
6566;SDS011;3317;43.994;22.878;2023-07-02T14:19:10;9.00;;;6.30;;
6566;SDS011;3317;43.994;22.878;2023-07-02T14:21:38;8.17;;;6.07;;
6566;SDS011;3317;43.994;22.878;2023-07-02T14:24:05;8.63;;;5.70;;
6566;SDS011;3317;43.994;22.878;2023-07-02T14:26:32;7.10;;;5.67;;
6566;SDS011;3317;43.994;22.878;2023-07-02T14:28:59;7.80;;;6.03;;
6566;SDS011;3317;43.994;22.878;2023-07-02T14:31:26;7.60;;;6.17;;
6566;SDS011;3317;43.994;22.878;2023-07-02T14:33:54;8.47;;;6.30;;
6566;SDS011;3317;43.994;22.878;2023-07-02T14:36:21;8.33;;;6.30;;
6566;SDS011;3317;43.994;22.878;2023-07-02T14:38:49;8.03;;;5.83;;
6566;SDS011;3317;43.994;22.878;2023-07-02T14:41:15;7.80;;;6.10;;
6566;SDS011;3317;43.994;22.878;2023-07-02T14:43:42;9.57;;;6.97;;
6566;SDS011;3317;43.994;22.878;2023-07-02T14:46:09;7.40;;;5.90;;
6566;SDS011;3317;43.994;22.878;2023-07-02T14:48:37;7.90;;;6.37;;
6566;SDS011;3317;43.994;22.878;2023-07-02T14:51:07;8.17;;;7.10;;
6566;SDS011;3317;43.994;22.878;2023-07-02T14:53:34;8.23;;;6.60;;
6566;SDS011;3317;43.994;22.878;2023-07-02T14:56:02;9.07;;;7.33;;
6566;SDS011;3317;43.994;22.878;2023-07-02T14:58:29;12.83;;;7.70;;
6566;SDS011;3317;43.994;22.878;2023-07-02T15:00:57;9.50;;;7.00;;